Time;durP1;ratioP1;P1;durP2;ratioP2;P2;SDS_P1;SDS_P2;PMS_P1;PMS_P2;Temp;Humidity;BMP_temperature;BMP_pressure;BME280_temperature;BME280_humidity;BME280_pressure;Samples;Min_cycle;Max_cycle;Signal;HPM_P1;HPM_P2
2022/06/19 00:00:02;;;;;;;18.85;2.92;;;;;;;-145.69;43.86;69874.47;4993692;28;20216;-78
2022/06/19 00:02:29;;;;;;;15.45;2.70;;;;;;;-145.69;43.64;69886.41;4993291;28;20268;-78
2022/06/19 00:04:58;;;;;;;18.52;2.50;;;;;;;-145.69;43.42;69860.53;4993204;28;20198;-79
2022/06/19 00:07:24;;;;;;;12.23;2.65;;;;;;;-145.69;43.57;69856.56;4993213;28;20237;-80
2022/06/19 00:09:51;;;;;;;15.55;2.70;;;;;;;-145.69;43.91;69870.50;4993227;28;20205;-78
2022/06/19 00:12:18;;;;;;;19.08;3.13;;;;;;;-145.69;43.70;69870.50;4993465;28;20215;-78
2022/06/19 00:14:46;;;;;;;15.48;3.08;;;;;;;-145.69;44.13;69872.47;4993415;28;20629;-77
2022/06/19 00:17:13;;;;;;;16.38;3.10;;;;;;;-145.69;43.48;69858.56;4992987;28;20687;-78
2022/06/19 00:19:40;;;;;;;19.08;3.25;;;;;;;-145.69;44.11;69866.50;4993339;28;20204;-78
2022/06/19 00:22:09;;;;;;;16.33;2.70;;;;;;;-145.69;44.30;69868.50;4992884;28;20205;-78
2022/06/19 00:24:36;;;;;;;12.52;3.13;;;;;;;-145.69;44.15;69870.50;4993429;28;20204;-78
2022/06/19 00:27:02;;;;;;;18.48;3.38;;;;;;;-145.69;44.46;69884.41;4992990;28;20233;-77
2022/06/19 00:29:29;;;;;;;16.23;2.38;;;;;;;-145.69;44.86;69892.38;4993194;28;20233;-77
2022/06/19 00:31:55;;;;;;;26.65;3.00;;;;;;;-145.69;44.53;69890.38;4992970;28;20284;-77
2022/06/19 00:34:23;;;;;;;16.75;3.72;;;;;;;-145.69;44.53;69894.38;4993006;28;20201;-77
2022/06/19 00:36:51;;;;;;;15.38;3.05;;;;;;;-145.69;44.52;69878.44;4993224;28;20344;-77
2022/06/19 00:39:21;;;;;;;13.98;3.03;;;;;;;-145.69;43.81;69886.41;4992961;28;20205;-77
2022/06/19 00:41:48;;;;;;;15.98;2.85;;;;;;;-145.69;44.96;69922.22;4993103;28;20201;-76
2022/06/19 00:44:16;;;;;;;14.13;2.50;;;;;;;-145.69;46.17;69965.97;4994625;28;20263;-77
2022/06/19 00:46:52;;;;;;;14.90;3.30;;;;;;;-145.69;46.63;69997.78;4996260;28;20198;-78
2022/06/19 00:49:23;;;;;;;13.00;3.08;;;;;;;-145.69;48.33;70021.66;4996496;28;20209;-76
2022/06/19 00:51:57;;;;;;;11.55;2.88;;;;;;;-145.69;50.06;70061.44;4996491;28;20557;-77
2022/06/19 00:54:25;;;;;;;16.17;2.92;;;;;;;-145.69;50.59;70069.41;4995995;28;20204;-76
2022/06/19 00:56:52;;;;;;;15.85;3.15;;;;;;;-145.69;50.98;70085.31;4996427;28;20202;-76
2022/06/19 00:59:19;;;;;;;22.58;3.08;;;;;;;-145.69;49.88;70071.41;4996402;28;20205;-77
2022/06/19 01:01:46;;;;;;;13.93;2.88;;;;;;;-145.69;52.17;70079.34;4996263;28;20611;-75
2022/06/19 01:04:18;;;;;;;13.00;3.28;;;;;;;-145.69;51.53;70085.31;4996287;28;20611;-76
2022/06/19 01:06:45;;;;;;;11.73;2.85;;;;;;;-145.69;51.61;70105.22;4996199;28;20205;-76
2022/06/19 01:09:11;;;;;;;12.50;3.08;;;;;;;-145.69;51.81;70105.22;4995158;28;20209;-77
2022/06/19 01:11:39;;;;;;;18.85;3.55;;;;;;;-145.69;52.98;70137.03;4996101;28;20201;-76
2022/06/19 01:14:09;;;;;;;13.63;2.83;;;;;;;-145.69;52.92;70127.09;4996007;28;20201;-76
2022/06/19 01:16:37;;;;;;;15.60;3.03;;;;;;;-145.69;54.19;70143.00;4995756;28;20648;-76
2022/06/19 01:19:04;;;;;;;17.20;3.03;;;;;;;-145.69;53.07;70125.09;4991280;28;20272;-76
2022/06/19 01:21:39;;;;;;;7.55;2.58;;;;;;;-145.69;54.11;70137.03;4994728;28;20209;-77
2022/06/19 01:24:14;;;;;;;12.75;2.80;;;;;;;-145.69;55.31;70168.88;4995730;28;20599;-77
2022/06/19 01:26:45;;;;;;;13.65;3.08;;;;;;;-145.69;57.23;70188.75;4995831;28;20205;-77
2022/06/19 01:29:14;;;;;;;19.92;2.90;;;;;;;-145.69;56.67;70186.78;4995510;28;20236;-76
2022/06/19 01:31:44;;;;;;;14.40;2.67;;;;;;;-145.69;59.02;70216.63;4995696;28;20292;-76
2022/06/19 01:34:28;;;;;;;13.90;2.92;;;;;;;-145.69;59.24;70224.56;4995438;28;20692;-76
2022/06/19 01:36:59;;;;;;;19.45;3.05;;;;;;;-145.69;61.69;70254.41;4995667;28;20208;-77
2022/06/19 01:39:29;;;;;;;13.73;2.92;;;;;;;-145.69;62.65;70276.28;4995762;28;20220;-77
2022/06/19 01:41:57;;;;;;;10.00;2.95;;;;;;;-145.69;63.41;70288.22;4995679;28;20559;-76
2022/06/19 01:44:25;;;;;;;9.05;2.47;;;;;;;-145.69;64.95;70324.03;4995466;28;20648;-76
2022/06/19 01:46:51;;;;;;;10.60;2.85;;;;;;;-145.69;66.90;70337.97;4994592;28;20222;-77
2022/06/19 01:49:18;;;;;;;12.90;3.22;;;;;;;-145.69;68.76;70343.94;4993585;28;20308;-76
2022/06/19 01:51:44;;;;;;;11.32;2.83;;;;;;;-145.69;70.83;70369.78;4995357;28;20727;-76
2022/06/19 01:54:17;;;;;;;10.82;2.58;;;;;;;-145.69;72.02;70391.66;4995505;28;20201;-76
2022/06/19 01:56:44;;;;;;;15.23;3.03;;;;;;;-145.69;72.86;70403.59;4995338;28;20205;-76
2022/06/19 01:59:12;;;;;;;19.83;3.42;;;;;;;-145.69;73.99;70413.56;4994622;28;20205;-76
2022/06/19 02:01:40;;;;;;;11.27;2.90;;;;;;;-145.69;72.84;70391.66;4995236;28;20205;-75
2022/06/19 02:04:08;;;;;;;24.83;2.97;;;;;;;-145.69;72.83;70405.59;4994775;28;20241;-77
2022/06/19 02:06:41;;;;;;;18.92;3.20;;;;;;;-145.69;72.08;70387.69;4994921;28;20205;-75
2022/06/19 02:09:08;;;;;;;17.73;3.67;;;;;;;-145.69;72.07;70383.72;4995208;28;20229;-76
2022/06/19 02:11:35;;;;;;;13.30;2.88;;;;;;;-145.69;71.85;70369.78;4995176;28;20252;-77
2022/06/19 02:14:05;;;;;;;19.65;3.28;;;;;;;-145.69;72.76;70397.63;4994521;28;20205;-75
2022/06/19 02:16:36;;;;;;;11.80;2.95;;;;;;;-145.69;73.71;70413.56;4994627;28;20755;-76
2022/06/19 02:19:03;;;;;;;18.13;3.20;;;;;;;-145.69;74.49;70423.50;4994953;28;20197;-76
2022/06/19 02:21:38;;;;;;;12.52;3.60;;;;;;;-145.69;73.21;70407.59;4994876;28;20550;-76
2022/06/19 02:24:06;;;;;;;15.15;2.92;;;;;;;-145.69;73.25;70407.59;4994536;28;20223;-75
2022/06/19 02:26:36;;;;;;;17.60;3.40;;;;;;;-145.69;71.35;70395.66;4994648;28;20738;-76
2022/06/19 02:29:06;;;;;;;15.43;3.20;;;;;;;-145.69;70.73;70377.75;4994642;28;20357;-76
2022/06/19 02:31:35;;;;;;;14.77;2.63;;;;;;;-145.69;71.13;70379.72;4994655;28;20267;-76
2022/06/19 02:34:07;;;;;;;14.20;2.95;;;;;;;-145.69;70.65;70377.75;4994527;28;20212;-76
2022/06/19 02:36:42;;;;;;;16.52;2.97;;;;;;;-145.69;72.24;70381.72;4994738;28;20228;-76
2022/06/19 02:39:41;;;;;;;12.02;2.85;;;;;;;-145.69;72.31;70393.66;4994600;28;20276;-75
2022/06/19 02:42:31;;;;;;;16.60;3.15;;;;;;;-145.69;72.75;70391.66;4994461;28;20205;-76
2022/06/19 02:45:01;;;;;;;22.70;3.40;;;;;;;-145.69;72.73;70391.66;4994312;28;20293;-76
2022/06/19 02:47:32;;;;;;;13.45;3.33;;;;;;;-145.69;72.88;70387.69;4994196;28;20292;-75
2022/06/19 02:49:58;;;;;;;12.68;2.85;;;;;;;-145.69;74.38;70399.63;4994164;28;20604;-75
2022/06/19 02:52:25;;;;;;;20.10;3.00;;;;;;;-145.69;72.74;70395.66;4994048;28;20723;-75
2022/06/19 02:54:52;;;;;;;11.52;3.00;;;;;;;-145.69;73.51;70381.72;4994149;28;20216;-75
2022/06/19 02:57:18;;;;;;;16.25;3.22;;;;;;;-145.69;75.29;70399.63;4994382;28;20213;-75
2022/06/19 02:59:45;;;;;;;15.93;3.60;;;;;;;-145.69;74.81;70401.63;4994167;28;20656;-75
2022/06/19 03:02:13;;;;;;;17.35;3.25;;;;;;;-145.69;75.06;70403.59;4993251;28;20448;-76
2022/06/19 03:04:44;;;;;;;17.95;3.85;;;;;;;-145.69;75.12;70393.66;4993867;28;20232;-75
2022/06/19 03:07:10;;;;;;;16.52;3.63;;;;;;;-145.69;74.14;70393.66;4993553;28;20628;-76
2022/06/19 03:09:37;;;;;;;18.15;3.40;;;;;;;-145.69;76.37;70399.63;4994005;28;20295;-76
2022/06/19 03:12:04;;;;;;;13.20;2.75;;;;;;;-145.69;75.73;70395.66;4993626;28;20202;-75
2022/06/19 03:14:32;;;;;;;12.63;2.85;;;;;;;-145.69;76.55;70395.66;4993714;28;20244;-75
2022/06/19 03:16:58;;;;;;;21.25;3.58;;;;;;;-145.69;74.79;70395.66;4993312;28;20304;-75
2022/06/19 03:19:25;;;;;;;16.95;2.97;;;;;;;-145.69;76.77;70393.66;4993544;28;20206;-76
2022/06/19 03:21:54;;;;;;;13.50;3.20;;;;;;;-145.69;80.20;70427.47;4994049;28;20332;-75
2022/06/19 03:24:22;;;;;;;21.98;3.20;;;;;;;-145.69;78.23;70407.59;4993903;28;20284;-76
2022/06/19 03:26:48;;;;;;;19.35;3.35;;;;;;;-145.69;76.63;70395.66;4993664;28;20201;-75
2022/06/19 03:29:15;;;;;;;18.80;3.22;;;;;;;-145.69;78.06;70399.63;4993461;28;20320;-76
2022/06/19 03:31:41;;;;;;;15.13;2.83;;;;;;;-145.69;74.36;70371.78;4993815;28;20208;-76
2022/06/19 03:34:07;;;;;;;17.85;3.55;;;;;;;-145.69;76.82;70371.78;4993469;28;20572;-76
2022/06/19 03:36:34;;;;;;;18.67;3.42;;;;;;;-145.69;76.72;70375.75;4993398;28;20220;-76
2022/06/19 03:39:02;;;;;;;16.13;3.22;;;;;;;-145.69;76.71;70369.78;4993692;28;20688;-75
2022/06/19 03:41:28;;;;;;;13.85;3.33;;;;;;;-145.69;83.65;70425.50;4993616;28;20205;-76
2022/06/19 03:43:55;;;;;;;11.88;2.85;;;;;;;-145.69;78.35;70401.63;4993141;28;20240;-75
2022/06/19 03:46:21;;;;;;;18.95;3.50;;;;;;;-145.69;81.56;70399.63;4993681;28;20217;-76
2022/06/19 03:48:50;;;;;;;12.20;2.80;;;;;;;-145.69;76.55;70369.78;4993302;28;20573;-76
2022/06/19 03:51:17;;;;;;;14.13;3.10;;;;;;;-145.69;77.03;70359.84;4993423;28;20556;-74
2022/06/19 03:53:45;;;;;;;18.45;3.45;;;;;;;-145.69;77.89;70363.81;4993228;28;20213;-75
2022/06/19 03:56:18;;;;;;;12.50;3.28;;;;;;;-145.69;76.17;70347.91;4993169;28;20571;-75
2022/06/19 03:58:47;;;;;;;22.17;3.95;;;;;;;-145.69;76.66;70347.91;4993432;28;20544;-76
2022/06/19 04:01:15;;;;;;;14.93;3.15;;;;;;;-145.69;81.38;70387.69;4993527;28;20198;-75
2022/06/19 04:03:45;;;;;;;19.08;3.42;;;;;;;-145.69;81.62;70397.63;4993669;28;20280;-76
2022/06/19 04:06:14;;;;;;;12.55;3.55;;;;;;;-145.69;78.08;70375.75;4993476;28;20268;-76
2022/06/19 04:08:44;;;;;;;14.20;3.13;;;;;;;-145.69;79.60;70369.78;4993008;28;20236;-76
2022/06/19 04:11:12;;;;;;;11.15;2.53;;;;;;;-145.69;84.76;70399.63;4993325;28;20206;-76
2022/06/19 04:13:40;;;;;;;23.48;3.47;;;;;;;-145.69;80.43;70379.72;4993437;28;20209;-76
2022/06/19 04:16:08;;;;;;;23.05;3.85;;;;;;;-145.69;80.66;70367.81;4993447;28;20198;-75
2022/06/19 04:18:35;;;;;;;19.73;3.40;;;;;;;-145.69;80.06;70353.88;4995484;28;20208;-76
2022/06/19 04:21:04;;;;;;;15.80;3.47;;;;;;;-145.69;79.82;70339.94;4997202;28;20296;-75
2022/06/19 04:23:30;;;;;;;16.73;3.22;;;;;;;-145.69;79.51;70339.94;4997082;28;20201;-76
2022/06/19 04:25:57;;;;;;;20.73;3.38;;;;;;;-145.69;80.09;70337.97;4996691;28;20213;-76
2022/06/19 04:28:24;;;;;;;14.90;3.55;;;;;;;-145.69;80.65;70316.06;4996771;28;20233;-76
2022/06/19 04:30:53;;;;;;;20.08;3.78;;;;;;;-145.69;80.91;70320.06;4997098;28;20260;-75
2022/06/19 04:33:21;;;;;;;13.02;3.13;;;;;;;-145.69;80.87;70304.13;4997236;28;20229;-76
2022/06/19 04:35:49;;;;;;;21.80;3.63;;;;;;;-145.69;78.77;70288.22;4996762;28;20549;-75
2022/06/19 04:38:15;;;;;;;19.00;3.40;;;;;;;-145.69;81.74;70298.16;4996228;28;20239;-75
2022/06/19 04:40:42;;;;;;;16.58;3.67;;;;;;;-145.69;84.77;70316.06;4996898;28;20537;-76
2022/06/19 04:43:11;;;;;;;13.15;3.35;;;;;;;-145.69;86.22;70322.03;4996646;28;20441;-76
2022/06/19 04:45:38;;;;;;;15.90;3.50;;;;;;;-145.69;82.94;70300.16;4996819;28;20201;-75
2022/06/19 04:48:06;;;;;;;13.95;3.25;;;;;;;-145.69;83.14;70280.28;4996185;28;20229;-76
2022/06/19 04:50:33;;;;;;;15.70;3.58;;;;;;;-145.69;80.13;70238.50;4996410;28;20240;-77
2022/06/19 04:52:59;;;;;;;15.90;3.78;;;;;;;-145.69;79.58;70208.66;4996214;28;20260;-75
2022/06/19 04:55:26;;;;;;;18.95;3.25;;;;;;;-145.69;78.55;70176.81;4996964;28;20268;-76
2022/06/19 04:57:52;;;;;;;15.30;3.58;;;;;;;-145.69;78.23;70160.91;4996547;28;20275;-76
2022/06/19 05:00:20;;;;;;;13.43;3.85;;;;;;;-145.69;79.40;70137.03;4996417;28;20232;-75
2022/06/19 05:02:50;;;;;;;17.85;3.72;;;;;;;-145.69;76.66;70129.09;4996123;28;20201;-75
2022/06/19 05:05:19;;;;;;;16.33;3.40;;;;;;;-145.69;78.07;70121.13;4996027;28;20229;-76
2022/06/19 05:07:46;;;;;;;14.52;3.47;;;;;;;-145.69;76.36;70101.25;4996789;28;20201;-77
2022/06/19 05:10:13;;;;;;;14.50;3.22;;;;;;;-145.69;76.45;70085.31;4996171;28;20236;-76
2022/06/19 05:12:39;;;;;;;25.58;3.67;;;;;;;-145.69;74.95;70085.31;4995891;28;20347;-76
2022/06/19 05:15:07;;;;;;;13.90;3.67;;;;;;;-145.69;75.78;70081.34;4996328;28;20201;-76
2022/06/19 05:17:34;;;;;;;19.90;3.60;;;;;;;-145.69;74.40;70077.38;4995982;28;20197;-76
2022/06/19 05:20:01;;;;;;;18.42;3.85;;;;;;;-145.69;73.53;70065.44;4995946;28;20206;-75
2022/06/19 05:22:30;;;;;;;15.85;3.00;;;;;;;-145.69;74.19;70065.44;4995992;28;20201;-75
2022/06/19 05:24:57;;;;;;;17.27;3.28;;;;;;;-145.69;74.49;70053.50;4995767;28;20209;-76
2022/06/19 05:27:23;;;;;;;22.17;3.97;;;;;;;-145.69;73.26;70033.59;4996086;28;20205;-75
2022/06/19 05:29:49;;;;;;;14.80;3.80;;;;;;;-145.69;73.17;70025.66;4995259;28;20728;-76
2022/06/19 05:32:17;;;;;;;15.55;3.45;;;;;;;-145.69;74.47;70001.78;4995780;28;20205;-77
2022/06/19 05:34:44;;;;;;;20.52;3.95;;;;;;;-145.69;72.91;69987.84;4995765;28;20228;-75
2022/06/19 05:37:11;;;;;;;12.15;3.10;;;;;;;-145.69;71.98;69973.94;4995194;28;20285;-76
2022/06/19 05:39:38;;;;;;;12.23;3.38;;;;;;;-145.69;74.58;69956.03;4995855;28;20205;-76
2022/06/19 05:42:05;;;;;;;20.27;4.03;;;;;;;-145.69;72.91;69910.28;4994641;28;20467;-76
2022/06/19 05:44:32;;;;;;;18.55;3.42;;;;;;;-145.69;70.04;69842.66;4995647;28;20205;-76
2022/06/19 05:46:58;;;;;;;13.68;3.47;;;;;;;-145.69;67.22;69794.91;4995239;28;20225;-77
2022/06/19 05:49:25;;;;;;;13.18;3.17;;;;;;;-145.69;66.08;69731.25;4995773;28;20233;-77
2022/06/19 05:51:51;;;;;;;10.80;3.08;;;;;;;-145.69;63.31;69657.66;4995533;28;20197;-77
2022/06/19 05:54:18;;;;;;;12.90;3.45;;;;;;;-145.69;63.76;69601.97;4995368;28;20206;-76
2022/06/19 05:56:45;;;;;;;12.70;3.22;;;;;;;-145.69;62.10;69617.88;4995141;28;20251;-77
2022/06/19 05:59:12;;;;;;;12.05;3.42;;;;;;;-145.69;62.30;69582.09;4995390;28;20260;-77
2022/06/19 06:01:38;;;;;;;18.38;3.70;;;;;;;-145.69;62.20;69596.00;4995101;28;20201;-77
2022/06/19 06:04:05;;;;;;;17.02;3.50;;;;;;;-145.69;61.59;69568.16;4995195;28;20240;-77
2022/06/19 06:06:33;;;;;;;17.33;3.58;;;;;;;-145.69;61.24;69502.53;4995473;28;20212;-77
2022/06/19 06:09:00;;;;;;;16.05;3.55;;;;;;;-145.69;60.94;69444.84;4994797;28;20335;-78
2022/06/19 06:11:26;;;;;;;8.82;3.35;;;;;;;-145.69;60.92;69458.78;4995058;28;20202;-77
2022/06/19 06:13:54;;;;;;;18.77;3.90;;;;;;;-145.69;60.59;69468.72;4995094;28;20208;-78
2022/06/19 06:16:22;;;;;;;12.65;3.40;;;;;;;-145.69;60.74;69446.84;4994891;28;20243;-78
2022/06/19 06:18:49;;;;;;;10.85;3.17;;;;;;;-145.69;60.11;69399.09;4995009;28;20204;-78
2022/06/19 06:21:18;;;;;;;18.02;4.05;;;;;;;-145.69;58.97;69359.31;4995027;28;20211;-78
2022/06/19 06:23:44;;;;;;;9.77;3.90;;;;;;;-145.69;56.45;69283.75;4994790;28;20612;-78
2022/06/19 06:26:13;;;;;;;16.95;3.47;;;;;;;-145.69;55.34;69218.13;4994834;28;20293;-78
2022/06/19 06:28:42;;;;;;;17.75;4.22;;;;;;;-145.69;54.51;69210.16;4994865;28;20202;-78
2022/06/19 06:31:10;;;;;;;12.45;4.40;;;;;;;-145.69;57.98;69186.31;4994985;28;20205;-78
2022/06/19 06:33:37;;;;;;;9.70;3.80;;;;;;;-145.69;59.01;69208.19;4994719;28;20661;-78
2022/06/19 06:36:04;;;;;;;14.50;4.25;;;;;;;-145.69;55.72;69178.34;4994116;28;20202;-78
2022/06/19 06:38:31;;;;;;;13.13;4.13;;;;;;;-145.69;53.88;69186.31;4994810;28;20726;-78
2022/06/19 06:40:58;;;;;;;14.07;4.22;;;;;;;-145.69;52.16;69152.50;4993992;28;20213;-79
2022/06/19 06:43:25;;;;;;;15.55;4.22;;;;;;;-145.69;48.79;69086.88;4993910;28;20209;-79
2022/06/19 06:45:52;;;;;;;15.30;5.03;;;;;;;-145.69;47.42;69086.88;4994149;28;20661;-78
2022/06/19 06:48:21;;;;;;;12.20;4.60;;;;;;;-145.69;44.08;69063.00;4994328;28;20233;-78
2022/06/19 06:50:47;;;;;;;13.20;5.28;;;;;;;-145.69;46.94;69063.00;4994366;28;20296;-79
2022/06/19 06:53:14;;;;;;;16.83;5.00;;;;;;;-145.69;43.16;69160.44;4994180;28;20201;-78
2022/06/19 06:55:41;;;;;;;12.05;4.88;;;;;;;-145.69;43.87;69190.28;4993719;28;20202;-78
2022/06/19 06:58:09;;;;;;;14.82;5.18;;;;;;;-145.69;46.70;69212.16;4994513;28;20207;-78
2022/06/19 07:00:37;;;;;;;20.65;5.38;;;;;;;-145.69;44.35;69202.22;4994368;28;20260;-78
2022/06/19 07:03:03;;;;;;;15.10;5.50;;;;;;;-145.69;43.45;69176.34;4993943;28;20656;-78
2022/06/19 07:05:31;;;;;;;25.13;6.10;;;;;;;-145.69;44.40;69198.22;4993956;28;20205;-78
2022/06/19 07:07:58;;;;;;;16.75;5.70;;;;;;;-145.69;44.09;69200.22;4994148;28;20252;-78
2022/06/19 07:10:25;;;;;;;13.77;6.07;;;;;;;-145.69;43.71;69192.25;4993643;28;20727;-77
2022/06/19 07:12:51;;;;;;;16.23;5.53;;;;;;;-145.69;44.95;69146.53;4993901;28;20200;-78
2022/06/19 07:15:18;;;;;;;12.38;6.10;;;;;;;-145.69;44.02;69136.59;4993786;28;20569;-77
2022/06/19 07:17:44;;;;;;;20.08;5.55;;;;;;;-145.69;42.10;69118.69;4993499;28;20198;-75
2022/06/19 07:20:12;;;;;;;15.50;5.15;;;;;;;-145.69;41.98;69112.72;4993970;28;20887;-75
2022/06/19 07:22:40;;;;;;;12.32;5.40;;;;;;;-145.69;41.86;69118.69;4993589;28;20683;-75
2022/06/19 07:25:08;;;;;;;18.10;5.45;;;;;;;-145.69;41.47;69130.63;4993455;28;20245;-75
2022/06/19 07:27:35;;;;;;;14.13;5.43;;;;;;;-145.69;40.71;69146.53;4993902;28;20224;-75
2022/06/19 07:30:02;;;;;;;15.38;5.57;;;;;;;-145.69;42.22;69140.56;4993484;28;20295;-75
2022/06/19 07:32:29;;;;;;;16.08;5.93;;;;;;;-145.69;42.25;69138.56;4993222;28;20287;-75
2022/06/19 07:34:55;;;;;;;15.48;5.32;;;;;;;-145.69;42.16;69116.69;4993784;28;20202;-76
2022/06/19 07:37:22;;;;;;;17.48;5.40;;;;;;;-145.69;40.81;69160.44;4993666;28;20263;-76
2022/06/19 07:39:50;;;;;;;24.17;5.60;;;;;;;-145.69;41.85;69162.44;4994031;28;20213;-75
2022/06/19 07:42:17;;;;;;;19.77;5.03;;;;;;;-145.69;42.59;69142.56;4993761;28;20205;-75
2022/06/19 07:44:43;;;;;;;13.57;5.13;;;;;;;-145.69;40.65;69156.47;4992408;28;20201;-76
2022/06/19 07:50:11;;;;;;;18.88;5.32;;;;;;;-145.69;41.39;69144.53;4983018;28;20224;-77
2022/06/19 07:52:37;;;;;;;17.60;5.15;;;;;;;-145.69;40.41;69122.66;4994932;28;20751;-78
2022/06/19 07:55:09;;;;;;;17.70;5.53;;;;;;;-145.69;42.01;69116.69;5000186;28;20211;-77
2022/06/19 07:57:37;;;;;;;16.17;5.07;;;;;;;-145.69;40.63;69110.72;5000132;28;20201;-77
2022/06/19 08:00:05;;;;;;;13.13;5.13;;;;;;;-145.69;41.33;69098.78;5000139;28;20527;-77
2022/06/19 08:02:32;;;;;;;15.38;4.95;;;;;;;-145.69;42.46;69102.78;4999778;28;20201;-77
2022/06/19 08:04:58;;;;;;;12.40;5.05;;;;;;;-145.69;39.88;69106.75;5000120;28;20292;-77
2022/06/19 08:07:25;;;;;;;18.63;5.00;;;;;;;-145.69;41.85;69096.81;4999774;28;20722;-77
2022/06/19 08:09:51;;;;;;;18.25;5.38;;;;;;;-145.69;39.21;69086.88;4999764;28;20224;-77
2022/06/19 08:12:22;;;;;;;19.13;5.38;;;;;;;-145.69;41.34;69090.84;4999947;28;20201;-77
2022/06/19 08:14:49;;;;;;;12.93;4.95;;;;;;;-145.69;39.17;69066.97;4999947;28;20209;-77
2022/06/19 08:17:15;;;;;;;14.15;4.80;;;;;;;-145.69;39.96;69066.97;4999718;28;20213;-76
2022/06/19 08:19:42;;;;;;;18.20;4.85;;;;;;;-145.69;40.72;69051.06;4999661;28;20208;-78
2022/06/19 08:22:10;;;;;;;14.15;5.38;;;;;;;-145.69;40.24;69066.97;4999864;28;20198;-77
2022/06/19 08:24:37;;;;;;;16.23;5.60;;;;;;;-145.69;39.37;69059.03;4999687;28;20201;-77
2022/06/19 08:27:04;;;;;;;14.55;5.07;;;;;;;-145.69;40.44;69039.13;4999563;28;20684;-77
2022/06/19 08:29:32;;;;;;;19.05;5.13;;;;;;;-145.69;40.57;69011.28;4999245;28;20289;-77
2022/06/19 08:32:02;;;;;;;14.95;4.70;;;;;;;-145.69;40.08;68999.38;4999888;28;20212;-78
2022/06/19 08:34:31;;;;;;;13.80;4.88;;;;;;;-145.69;40.61;68971.53;5000026;28;20236;-78
2022/06/19 08:36:59;;;;;;;17.40;4.32;;;;;;;-145.69;40.57;68989.41;4999458;28;20738;-77
2022/06/19 08:39:26;;;;;;;26.13;4.97;;;;;;;-145.69;38.83;68975.50;4983654;28;20206;-77
2022/06/19 08:42:12;;;;;;;12.48;4.72;;;;;;;-145.69;37.32;69005.31;4980029;28;20210;-77
2022/06/19 08:44:53;;;;;;;13.70;5.13;;;;;;;-145.69;39.98;69003.34;4980210;28;20198;-77
2022/06/19 08:47:35;;;;;;;17.00;5.38;;;;;;;-145.69;35.69;69015.28;4980191;28;20237;-78
2022/06/19 08:50:12;;;;;;;17.30;5.65;;;;;;;-145.69;37.58;69013.28;4979889;28;20226;-77
2022/06/19 08:52:53;;;;;;;14.07;5.47;;;;;;;-145.69;38.73;69021.25;4979818;28;20205;-78
2022/06/19 08:55:29;;;;;;;12.35;5.47;;;;;;;-145.69;38.13;68979.47;4980138;28;20213;-77
2022/06/19 08:58:06;;;;;;;13.68;4.80;;;;;;;-145.69;39.29;68959.59;4980046;28;20206;-77
2022/06/19 09:00:45;;;;;;;16.98;5.43;;;;;;;-145.69;36.73;68973.50;4979853;28;20206;-78
2022/06/19 09:03:23;;;;;;;26.17;5.45;;;;;;;-145.69;35.97;68987.44;4980093;28;20289;-78
2022/06/19 09:05:55;;;;;;;17.05;5.30;;;;;;;-145.69;37.10;68961.56;4974878;28;20905;-78
2022/06/19 09:08:47;;;;;;;17.00;5.32;;;;;;;-145.69;37.42;68955.63;4977001;28;20206;-79
2022/06/19 09:11:27;;;;;;;14.98;5.15;;;;;;;-145.69;37.80;68933.75;4976684;28;20233;-78
2022/06/19 09:14:08;;;;;;;14.40;5.05;;;;;;;-145.69;35.53;68967.53;4976396;28;20454;-78
2022/06/19 09:16:39;;;;;;;20.70;5.30;;;;;;;-145.69;36.05;68983.44;4976537;28;20208;-77
2022/06/19 09:19:14;;;;;;;22.50;5.93;;;;;;;-145.69;37.82;68947.66;4976792;28;20210;-78
2022/06/19 09:22:03;;;;;;;19.25;5.50;;;;;;;-145.69;35.39;68935.72;4976705;28;20201;-76
2022/06/19 09:24:49;;;;;;;14.40;5.35;;;;;;;-145.69;36.01;68929.75;4976740;28;20206;-76
2022/06/19 09:27:19;;;;;;;21.02;5.53;;;;;;;-145.69;37.83;68913.84;4991783;28;20208;-77
2022/06/19 09:29:54;;;;;;;19.98;4.95;;;;;;;-145.69;35.57;68933.75;4995487;28;20760;-76
2022/06/19 09:32:30;;;;;;;16.05;5.28;;;;;;;-145.69;37.94;68933.75;4995861;28;20529;-75
2022/06/19 09:35:04;;;;;;;20.27;4.88;;;;;;;-145.69;36.21;68935.72;4995784;28;20205;-76
2022/06/19 09:37:36;;;;;;;20.23;5.53;;;;;;;-145.69;38.11;68931.75;4995298;28;20209;-76
2022/06/19 09:40:08;;;;;;;18.98;5.20;;;;;;;-145.69;37.80;68923.78;4995906;28;20197;-76
2022/06/19 09:42:38;;;;;;;20.65;5.32;;;;;;;-145.69;36.31;68923.78;4995673;28;20211;-76
2022/06/19 09:45:12;;;;;;;16.10;5.47;;;;;;;-145.69;34.88;68937.72;4991622;28;20256;-76
2022/06/19 09:47:45;;;;;;;19.38;4.80;;;;;;;-145.69;34.93;68967.53;4982581;28;20556;-77
2022/06/19 09:50:18;;;;;;;18.42;5.15;;;;;;;-145.69;34.81;68967.53;4995412;28;20688;-76
2022/06/19 09:52:50;;;;;;;22.15;5.68;;;;;;;-145.69;36.63;68949.66;4995381;28;20205;-77
2022/06/19 09:55:23;;;;;;;22.10;5.32;;;;;;;-145.69;36.34;68931.75;4994874;28;20212;-76
2022/06/19 09:57:56;;;;;;;19.65;5.13;;;;;;;-145.69;35.50;68890.00;4995531;28;20209;-77
2022/06/19 10:00:26;;;;;;;18.83;5.05;;;;;;;-145.69;35.27;68897.94;4995494;28;20229;-77
2022/06/19 10:02:59;;;;;;;16.88;5.38;;;;;;;-145.69;33.58;68899.94;4994880;28;20197;-77
2022/06/19 10:05:34;;;;;;;29.95;5.35;;;;;;;-145.69;34.49;68901.91;4993471;28;20240;-77
2022/06/19 10:08:05;;;;;;;19.80;5.45;;;;;;;-145.69;32.69;68931.75;4993185;28;20197;-79
2022/06/19 10:10:38;;;;;;;18.73;5.40;;;;;;;-145.69;34.42;68899.94;4995158;28;20300;-78
2022/06/19 10:13:09;;;;;;;16.38;5.57;;;;;;;-145.69;34.42;68911.88;4994803;28;20197;-77
2022/06/19 10:15:37;;;;;;;21.92;5.25;;;;;;;-145.69;33.64;68939.69;4994874;28;20300;-78
2022/06/19 10:18:13;;;;;;;15.60;4.80;;;;;;;-145.69;33.31;68931.75;4995117;28;20209;-76
2022/06/19 10:20:50;;;;;;;18.85;4.95;;;;;;;-145.69;34.20;68846.25;4994443;28;20201;-77
2022/06/19 10:23:25;;;;;;;20.48;5.80;;;;;;;-145.69;32.52;68832.31;4995067;28;20205;-78
2022/06/19 10:26:04;;;;;;;24.20;5.50;;;;;;;-145.69;33.77;68810.44;4995013;28;20332;-78
2022/06/19 10:28:41;;;;;;;16.40;5.50;;;;;;;-145.69;33.34;68734.88;4994742;28;20185;-78
2022/06/19 10:31:20;;;;;;;23.48;5.20;;;;;;;-145.69;31.96;68718.97;4994652;28;20327;-77
2022/06/19 10:34:01;;;;;;;16.15;5.22;;;;;;;-145.69;35.27;68720.97;4994527;28;20205;-77
2022/06/19 10:36:35;;;;;;;17.88;5.70;;;;;;;-145.69;35.59;68778.63;4994619;28;20205;-78
2022/06/19 10:39:13;;;;;;;15.07;6.07;;;;;;;-145.69;37.21;68780.63;4994356;28;20534;-77
2022/06/19 10:42:05;;;;;;;14.07;5.45;;;;;;;-145.69;37.24;68750.78;4994526;28;20668;-77
2022/06/19 10:44:59;;;;;;;21.88;5.50;;;;;;;-145.69;32.96;68720.97;4994650;28;20625;-78
2022/06/19 10:47:44;;;;;;;21.52;5.40;;;;;;;-145.69;32.28;68758.75;4991404;28;20241;-77
2022/06/19 10:50:25;;;;;;;20.80;5.57;;;;;;;-145.69;31.29;68768.69;4994347;28;20279;-78
2022/06/19 10:53:00;;;;;;;23.73;4.97;;;;;;;-145.69;32.92;68744.81;4994227;28;20256;-78
2022/06/19 10:55:34;;;;;;;16.50;5.70;;;;;;;-145.69;32.66;68836.28;4994235;28;20205;-78
2022/06/19 10:58:14;;;;;;;15.80;5.57;;;;;;;-145.69;32.93;68890.00;4994168;28;20207;-77
2022/06/19 11:00:44;;;;;;;25.48;6.05;;;;;;;-145.69;34.74;68893.97;4994191;28;20648;-77
2022/06/19 11:06:12;;;;;;;19.13;5.22;;;;;;;-145.69;30.96;68852.19;4994127;28;20204;-78
2022/06/19 11:08:43;;;;;;;26.42;5.90;;;;;;;-145.69;30.09;68836.28;4994136;28;20591;-78
2022/06/19 11:11:14;;;;;;;16.83;5.63;;;;;;;-145.69;32.33;68816.41;4994136;28;20233;-78
2022/06/19 11:14:03;;;;;;;15.70;4.60;;;;;;;-145.69;30.46;68820.38;4993889;28;20244;-77
2022/06/19 11:16:31;;;;;;;17.75;4.70;;;;;;;-145.69;30.75;68800.50;4993919;28;20656;-78
2022/06/19 11:18:58;;;;;;;19.27;4.97;;;;;;;-145.69;30.85;68784.59;4993951;28;20209;-76
2022/06/19 11:21:30;;;;;;;19.83;4.90;;;;;;;-145.69;30.16;68832.31;4993966;28;20207;-78
2022/06/19 11:23:59;;;;;;;20.85;5.53;;;;;;;-145.69;29.88;68832.31;4993952;28;20212;-78
2022/06/19 11:26:29;;;;;;;18.33;5.30;;;;;;;-145.69;31.70;68816.41;4993787;28;20212;-77